Time;durP1;ratioP1;P1;durP2;ratioP2;P2;SDS_P1;SDS_P2;PMS_P1;PMS_P2;Temp;Humidity;BMP_temperature;BMP_pressure;BME280_temperature;BME280_humidity;BME280_pressure;Samples;Min_cycle;Max_cycle;Signal;HPM_P1;HPM_P2
2021/06/07 00:08:03;;;;;;;2.22;0.75;;;14.30;99.90;;;;;;21040097;28;20070;-49
2021/06/07 00:18:05;;;;;;;1.77;0.60;;;14.30;99.90;;;;;;21039971;28;20063;-49
2021/06/07 00:28:07;;;;;;;2.25;0.88;;;14.10;99.90;;;;;;21043652;28;20135;-49
2021/06/07 00:38:08;;;;;;;1.52;0.60;;;14.00;99.90;;;;;;21040366;28;20043;-49
2021/06/07 00:48:10;;;;;;;2.10;0.85;;;13.80;99.90;;;;;;21038275;28;20501;-49
2021/06/07 00:58:12;;;;;;;1.35;0.30;;;13.70;99.90;;;;;;21038409;28;20044;-49
2021/06/07 01:08:14;;;;;;;1.70;0.35;;;13.70;99.90;;;;;;21037630;28;20052;-49
2021/06/07 01:18:16;;;;;;;1.65;0.75;;;13.70;99.90;;;;;;21033546;28;20111;-49
2021/06/07 01:28:19;;;;;;;1.92;0.80;;;13.60;99.90;;;;;;21034881;28;20046;-49
2021/06/07 01:38:21;;;;;;;4.30;0.90;;;13.50;99.90;;;;;;21034932;28;20040;-49
2021/06/07 01:48:23;;;;;;;3.03;1.13;;;13.50;99.90;;;;;;21013137;28;20047;-49
2021/06/07 01:58:25;;;;;;;1.73;0.77;;;13.40;99.90;;;;;;21032203;28;20043;-49
2021/06/07 02:08:31;;;;;;;2.40;1.10;;;13.30;99.90;;;;;;21036461;28;20055;-49
2021/06/07 02:18:37;;;;;;;4.13;1.20;;;13.30;99.90;;;;;;21034154;28;20118;-49
2021/06/07 02:28:38;;;;;;;2.72;1.20;;;13.20;99.90;;;;;;21032660;28;20134;-49
2021/06/07 02:38:40;;;;;;;5.75;1.25;;;13.10;99.90;;;;;;21028832;28;20066;-49
2021/06/07 02:48:41;;;;;;;3.10;1.40;;;13.00;99.90;;;;;;21027945;28;20044;-49
2021/06/07 02:58:42;;;;;;;2.75;1.10;;;12.90;99.90;;;;;;21030664;28;20055;-49
2021/06/07 03:08:43;;;;;;;2.38;0.90;;;12.90;99.90;;;;;;21031138;28;20563;-49
2021/06/07 03:18:44;;;;;;;2.55;1.00;;;12.70;99.90;;;;;;21002052;28;20043;-49
2021/06/07 03:28:45;;;;;;;4.22;1.10;;;12.60;99.90;;;;;;21030630;28;20047;-49
2021/06/07 03:38:46;;;;;;;2.35;0.90;;;12.70;99.90;;;;;;21028758;28;20411;-49
2021/06/07 03:48:48;;;;;;;3.50;1.30;;;12.60;99.90;;;;;;21027765;28;20149;-49
2021/06/07 03:58:49;;;;;;;3.22;1.30;;;12.70;99.90;;;;;;21029930;28;20043;-50
2021/06/07 04:08:55;;;;;;;3.03;1.35;;;12.60;99.90;;;;;;21042305;28;20058;-48
2021/06/07 04:18:56;;;;;;;2.10;0.95;;;12.60;99.90;;;;;;21038601;28;20371;-49
2021/06/07 04:28:58;;;;;;;2.85;0.95;;;12.70;99.90;;;;;;21036335;28;20048;-49
2021/06/07 04:38:59;;;;;;;1.58;0.82;;;12.70;99.90;;;;;;21037825;28;20044;-49
2021/06/07 04:49:00;;;;;;;2.75;1.35;;;12.70;99.90;;;;;;21033097;28;20075;-49
2021/06/07 04:59:01;;;;;;;2.42;1.20;;;12.80;99.90;;;;;;21036046;28;20047;-49
2021/06/07 05:09:03;;;;;;;2.33;1.00;;;13.10;99.90;;;;;;21037115;28;20513;-49
2021/06/07 05:19:05;;;;;;;4.15;0.90;;;13.50;99.90;;;;;;21032858;28;20032;-49
2021/06/07 05:29:06;;;;;;;1.67;0.73;;;13.80;99.90;;;;;;21039093;28;20048;-49
2021/06/07 05:39:08;;;;;;;2.13;0.82;;;14.20;99.90;;;;;;21014712;28;20075;-49
2021/06/07 05:49:10;;;;;;;1.83;0.80;;;14.90;99.90;;;;;;21036886;28;20048;-47
2021/06/07 05:59:11;;;;;;;1.40;0.60;;;15.70;99.90;;;;;;21043011;28;20044;-47
2021/06/07 06:09:13;;;;;;;8.05;0.50;;;16.10;99.90;;;;;;21033212;28;20173;-48
2021/06/07 06:19:15;;;;;;;2.28;0.77;;;16.30;99.90;;;;;;21029233;28;20044;-46
2021/06/07 06:29:16;;;;;;;1.50;0.45;;;16.80;99.90;;;;;;21032082;28;20054;-47
2021/06/07 06:39:18;;;;;;;1.10;0.38;;;16.90;99.90;;;;;;21040024;28;20108;-48
2021/06/07 06:49:19;;;;;;;1.13;0.40;;;17.10;99.90;;;;;;21034814;28;20071;-47
2021/06/07 06:59:20;;;;;;;1.30;0.57;;;17.30;99.90;;;;;;21029964;28;20043;-48
2021/06/07 07:09:21;;;;;;;2.13;1.08;;;17.60;99.90;;;;;;21031951;28;20178;-48
2021/06/07 07:19:23;;;;;;;2.95;0.70;;;17.60;99.90;;;;;;21036776;28;20051;-47
2021/06/07 07:29:24;;;;;;;1.08;0.60;;;17.70;99.90;;;;;;21032554;28;20162;-48
2021/06/07 07:39:26;;;;;;;5.28;0.60;;;17.60;99.90;;;;;;21052042;28;20040;-48
2021/06/07 07:49:27;;;;;;;1.90;0.77;;;17.60;99.90;;;;;;21056226;28;20048;-46
2021/06/07 07:59:29;;;;;;;3.47;0.90;;;17.50;99.90;;;;;;21031953;28;20083;-47
2021/06/07 08:09:31;;;;;;;2.95;0.88;;;17.60;99.90;;;;;;21055718;28;20382;-47
2021/06/07 08:19:32;;;;;;;2.58;0.50;;;17.90;99.90;;;;;;21054968;28;20040;-48
2021/06/07 08:29:33;;;;;;;1.50;0.90;;;18.10;99.90;;;;;;21048633;28;20101;-48
2021/06/07 08:39:34;;;;;;;1.63;0.68;;;18.50;99.90;;;;;;21043965;28;20109;-48
2021/06/07 08:49:36;;;;;;;5.82;0.88;;;18.80;99.90;;;;;;21036519;28;20135;-49
2021/06/07 08:59:37;;;;;;;1.23;0.52;;;19.20;99.90;;;;;;21042685;28;20043;-49
2021/06/07 09:09:39;;;;;;;1.13;0.63;;;19.50;99.90;;;;;;21041185;28;20048;-49
2021/06/07 09:19:40;;;;;;;1.05;0.47;;;19.60;99.90;;;;;;21043831;28;20063;-49
2021/06/07 09:29:41;;;;;;;0.85;0.40;;;20.00;99.90;;;;;;21023656;28;20127;-51
2021/06/07 09:39:44;;;;;;;1.45;0.60;;;20.30;99.90;;;;;;21045724;28;20040;-51
2021/06/07 09:49:53;;;;;;;2.20;0.47;;;20.50;99.90;;;;;;21023524;28;20143;-51
2021/06/07 09:59:54;;;;;;;2.03;1.13;;;20.40;99.90;;;;;;21021233;28;20127;-50
2021/06/07 10:10:16;;;;;;;2.47;0.93;;;20.70;99.90;;;;;;21031942;28;20090;-51
2021/06/07 10:30:21;;;;;;;2.25;0.52;;;21.10;99.90;;;;;;21040417;28;20052;-50
2021/06/07 10:40:25;;;;;;;1.42;0.70;;;21.30;99.90;;;;;;21040728;28;20063;-51
2021/06/07 10:50:29;;;;;;;2.45;0.73;;;21.60;99.90;;;;;;21039050;28;20062;-51
2021/06/07 11:00:35;;;;;;;2.17;1.10;;;21.70;99.90;;;;;;21040253;28;20105;-50
2021/06/07 11:10:43;;;;;;;1.15;0.60;;;21.60;99.90;;;;;;21030252;28;20071;-50
2021/06/07 11:20:44;;;;;;;1.67;0.80;;;21.50;99.90;;;;;;21069355;28;20054;-50
2021/06/07 11:30:46;;;;;;;4.43;0.80;;;21.30;99.90;;;;;;21064757;28;20045;-50
2021/06/07 11:40:47;;;;;;;2.15;0.70;;;21.80;99.90;;;;;;21071085;28;20040;-51
2021/06/07 11:50:48;;;;;;;1.10;0.70;;;22.10;99.90;;;;;;21062898;28;20068;-51
2021/06/07 12:00:59;;;;;;;1.13;0.60;;;22.30;99.90;;;;;;21062464;28;20483;-51
2021/06/07 12:11:02;;;;;;;1.85;0.80;;;22.20;99.90;;;;;;21056839;28;20044;-50
2021/06/07 12:21:11;;;;;;;1.30;0.60;;;22.70;99.90;;;;;;21055198;28;20089;-51
2021/06/07 12:31:12;;;;;;;3.58;0.88;;;22.70;99.90;;;;;;21048713;28;20082;-51
2021/06/07 12:41:14;;;;;;;1.70;0.73;;;22.30;99.90;;;;;;21049829;28;20059;-51
2021/06/07 12:51:23;;;;;;;1.27;0.50;;;23.00;99.90;;;;;;21046077;28;20048;-50
2021/06/07 13:01:41;;;;;;;1.95;1.00;;;22.80;99.90;;;;;;21045893;28;20044;-50
2021/06/07 13:11:46;;;;;;;1.85;0.57;;;22.60;99.90;;;;;;21047324;28;20048;-50
2021/06/07 13:21:58;;;;;;;1.58;0.80;;;22.60;99.90;;;;;;21042786;28;20044;-50
2021/06/07 13:32:28;;;;;;;2.80;0.57;;;22.50;99.90;;;;;;21024403;28;20121;-50
2021/06/07 13:42:41;;;;;;;1.67;0.65;;;22.80;99.90;;;;;;21042949;28;20153;-50
2021/06/07 13:52:48;;;;;;;2.58;0.40;;;23.50;99.90;;;;;;21003905;28;20047;-50
2021/06/07 14:02:49;;;;;;;;;;;23.00;99.80;;;;;;21017972;28;20036;-51
2021/06/07 14:12:50;;;;;;;1.73;0.73;;;22.80;99.90;;;;;;21035828;28;19920;-50
2021/06/07 14:33:13;;;;;;;1.35;0.50;;;22.20;99.90;;;;;;21042072;28;20047;-50
2021/06/07 14:43:14;;;;;;;1.92;0.80;;;22.30;99.90;;;;;;21004111;28;20078;-50
2021/06/07 14:53:19;;;;;;;0.82;0.50;;;22.50;99.90;;;;;;21035100;28;20086;-50
2021/06/07 15:03:20;;;;;;;1.50;0.63;;;22.40;99.90;;;;;;21041990;28;20048;-50
2021/06/07 15:13:22;;;;;;;1.38;0.43;;;22.50;99.90;;;;;;21036477;28;20040;-50
2021/06/07 15:23:24;;;;;;;1.02;0.50;;;22.00;99.90;;;;;;21023673;28;20119;-50
2021/06/07 15:33:27;;;;;;;1.08;0.50;;;22.20;99.90;;;;;;21026432;28;20048;-50
2021/06/07 15:43:33;;;;;;;1.30;0.52;;;22.00;99.90;;;;;;21034827;28;20050;-50
2021/06/07 15:53:35;;;;;;;2.25;0.88;;;21.50;99.90;;;;;;21034009;28;20048;-50
2021/06/07 16:03:40;;;;;;;2.97;0.88;;;21.70;99.90;;;;;;21044151;28;20334;-50
2021/06/07 16:13:42;;;;;;;2.53;0.77;;;21.50;99.90;;;;;;20995496;28;20104;-50
2021/06/07 16:23:51;;;;;;;2.30;0.82;;;21.40;99.90;;;;;;21028216;28;20538;-50
2021/06/07 16:33:53;;;;;;;2.22;1.00;;;21.30;99.90;;;;;;21046284;28;20054;-51
2021/06/07 16:43:54;;;;;;;1.90;0.90;;;21.10;99.90;;;;;;21041320;28;20043;-50
2021/06/07 16:53:56;;;;;;;2.28;0.95;;;21.30;99.90;;;;;;21040718;28;20406;-50
2021/06/07 17:03:57;;;;;;;2.13;1.10;;;21.00;99.90;;;;;;21037054;28;20040;-50
2021/06/07 17:14:07;;;;;;;2.25;0.93;;;20.80;99.90;;;;;;21013132;28;20127;-51
2021/06/07 17:24:08;;;;;;;3.78;1.50;;;20.60;99.90;;;;;;21036168;28;20256;-50
2021/06/07 17:34:11;;;;;;;3.88;1.38;;;20.50;99.90;;;;;;21026925;28;20040;-50
2021/06/07 17:44:12;;;;;;;3.03;1.60;;;20.40;99.90;;;;;;21042789;28;20127;-50
2021/06/07 17:54:14;;;;;;;2.78;1.05;;;20.30;99.90;;;;;;21041085;28;20133;-51
2021/06/07 18:04:15;;;;;;;2.50;1.08;;;20.20;99.90;;;;;;21031576;28;20063;-51
2021/06/07 18:14:16;;;;;;;2.08;1.10;;;20.10;99.90;;;;;;21037371;28;20109;-50
2021/06/07 18:24:18;;;;;;;3.22;1.50;;;20.00;99.90;;;;;;21024265;28;20032;-50
2021/06/07 18:34:19;;;;;;;1.58;0.98;;;19.90;99.90;;;;;;21013124;28;20136;-50
2021/06/07 18:44:20;;;;;;;5.25;1.13;;;19.80;99.90;;;;;;21013853;28;20075;-50
2021/06/07 18:54:22;;;;;;;1.95;0.93;;;19.60;99.90;;;;;;21010105;28;20193;-50
2021/06/07 19:04:23;;;;;;;2.08;1.02;;;19.50;99.90;;;;;;20981864;28;20406;-50
2021/06/07 19:14:24;;;;;;;1.88;0.77;;;19.30;99.90;;;;;;21006596;28;20057;-50
2021/06/07 19:24:25;;;;;;;2.40;1.60;;;19.10;99.90;;;;;;21010840;28;20146;-50
2021/06/07 19:34:26;;;;;;;2.70;1.10;;;18.90;99.90;;;;;;21020341;28;20044;-50
2021/06/07 19:44:28;;;;;;;2.25;0.90;;;18.80;99.90;;;;;;21003350;28;20043;-50
2021/06/07 19:54:29;;;;;;;1.60;0.70;;;18.70;99.90;;;;;;21028835;28;20182;-50
2021/06/07 20:04:31;;;;;;;3.92;1.27;;;18.60;99.90;;;;;;21028387;28;20088;-50
2021/06/07 20:14:33;;;;;;;2.13;0.50;;;18.20;99.90;;;;;;21018732;28;20048;-50
2021/06/07 20:24:35;;;;;;;0.70;0.43;;;18.00;99.90;;;;;;21023115;28;20064;-50
2021/06/07 20:34:36;;;;;;;2.97;0.98;;;18.00;99.90;;;;;;21014382;28;20418;-50
2021/06/07 20:44:37;;;;;;;1.55;0.60;;;17.80;99.90;;;;;;21013996;28;20372;-50
2021/06/07 20:54:38;;;;;;;2.30;0.90;;;17.70;99.90;;;;;;21009317;28;20109;-50
2021/06/07 21:04:39;;;;;;;3.25;1.00;;;17.80;99.90;;;;;;21018914;28;20047;-50
2021/06/07 21:14:41;;;;;;;3.70;1.20;;;17.60;99.90;;;;;;21018098;28;20613;-50
2021/06/07 21:24:42;;;;;;;4.03;1.63;;;17.60;99.90;;;;;;21020289;28;20589;-50
2021/06/07 21:34:43;;;;;;;5.13;1.88;;;17.60;99.90;;;;;;21017599;28;20597;-50
2021/06/07 21:44:44;;;;;;;6.95;2.53;;;17.70;99.90;;;;;;21019960;28;20474;-50
2021/06/07 21:54:46;;;;;;;4.47;2.10;;;17.50;99.90;;;;;;20998319;28;20138;-50
2021/06/07 22:04:47;;;;;;;5.60;2.40;;;17.60;99.90;;;;;;21016537;28;20531;-50
2021/06/07 22:14:48;;;;;;;4.68;2.05;;;17.40;99.90;;;;;;21015715;28;20044;-50
2021/06/07 22:24:49;;;;;;;4.30;1.88;;;17.30;99.90;;;;;;21013432;28;20067;-50
2021/06/07 22:34:50;;;;;;;5.03;2.03;;;17.40;99.90;;;;;;21012892;28;20051;-50
2021/06/07 22:44:52;;;;;;;5.68;2.10;;;17.30;99.90;;;;;;21011973;28;20036;-50
2021/06/07 22:54:53;;;;;;;4.88;2.63;;;17.20;99.90;;;;;;21011132;28;20048;-50
2021/06/07 23:04:55;;;;;;;5.20;2.33;;;17.10;99.90;;;;;;21016318;28;20099;-50
2021/06/07 23:14:56;;;;;;;7.85;3.17;;;17.10;99.90;;;;;;21011003;28;20186;-50
2021/06/07 23:24:57;;;;;;;5.32;2.28;;;17.00;99.90;;;;;;21010348;28;20385;-50
2021/06/07 23:34:58;;;;;;;7.30;2.88;;;16.90;99.90;;;;;;21004988;28;20047;-50
2021/06/07 23:45:05;;;;;;;6.20;2.90;;;16.70;99.90;;;;;;21010231;28;20093;-50
2021/06/07 23:55:06;;;;;;;6.20;2.78;;;16.50;99.90;;;;;;21010856;28;20132;-50
